createdAt,value
2023-05-21T00:00:43.158Z,21.30
2023-05-21T00:04:07.806Z,21.30
2023-05-21T00:07:31.598Z,21.20
2023-05-21T00:10:53.896Z,21.30
2023-05-21T00:14:16.180Z,21.20
2023-05-21T00:17:40.104Z,21.30
2023-05-21T00:21:02.916Z,21.30
2023-05-21T00:24:25.160Z,21.20
2023-05-21T00:27:47.442Z,21.20
2023-05-21T00:31:10.319Z,21.20
2023-05-21T00:34:32.689Z,21.20
2023-05-21T00:37:55.446Z,21.20
2023-05-21T00:41:19.001Z,21.20
2023-05-21T00:44:41.273Z,21.20
2023-05-21T00:48:04.831Z,21.20
2023-05-21T00:51:30.326Z,21.20
2023-05-21T00:54:53.141Z,21.20
2023-05-21T00:58:17.795Z,21.20
2023-05-21T01:01:40.217Z,21.20
2023-05-21T01:05:04.951Z,21.20
2023-05-21T01:08:29.925Z,21.20
2023-05-21T01:11:53.058Z,21.20
2023-05-21T01:15:15.623Z,21.20
2023-05-21T01:18:38.536Z,21.20
2023-05-21T01:22:05.761Z,21.20
2023-05-21T01:25:28.313Z,21.20
2023-05-21T01:28:51.635Z,21.20
2023-05-21T01:32:44.800Z,21.20
2023-05-21T01:36:19.188Z,21.20
2023-05-21T01:39:47.080Z,21.10
2023-05-21T01:43:10.448Z,21.10
2023-05-21T01:46:36.302Z,21.10
2023-05-21T01:50:00.219Z,21.10
2023-05-21T01:53:23.197Z,21.10
2023-05-21T01:56:46.131Z,21.10
2023-05-21T02:00:09.470Z,21.10
2023-05-21T02:03:38.637Z,21.10
2023-05-21T02:07:00.988Z,21.10
2023-05-21T02:10:23.365Z,21.10
2023-05-21T02:13:46.359Z,21.10
2023-05-21T02:17:08.685Z,21.10
2023-05-21T02:20:31.696Z,21.10
2023-05-21T02:23:54.187Z,21.00
2023-05-21T02:27:17.741Z,21.10
2023-05-21T02:30:40.076Z,21.00
2023-05-21T02:34:02.484Z,21.00
2023-05-21T02:37:29.614Z,21.00
2023-05-21T02:40:52.153Z,21.00
2023-05-21T02:44:14.771Z,21.00
2023-05-21T02:47:38.380Z,21.00
2023-05-21T02:51:02.810Z,21.00
2023-05-21T02:54:25.173Z,21.00
2023-05-21T02:57:48.261Z,21.00
2023-05-21T03:01:10.630Z,21.00
2023-05-21T03:04:39.262Z,21.00
2023-05-21T03:08:01.656Z,21.00
2023-05-21T03:11:24.480Z,21.00
2023-05-21T03:14:46.772Z,21.00
2023-05-21T03:18:09.122Z,21.00
2023-05-21T03:21:31.801Z,20.90
2023-05-21T03:24:54.238Z,20.90
2023-05-21T03:28:18.357Z,21.00
2023-05-21T03:31:45.128Z,20.90
2023-05-21T03:35:09.070Z,21.00
2023-05-21T03:38:31.804Z,20.90
2023-05-21T03:41:54.109Z,20.90
2023-05-21T03:45:28.691Z,21.00
2023-05-21T03:49:08.232Z,20.90
2023-05-21T03:52:32.643Z,20.90
2023-05-21T03:55:55.335Z,20.90
2023-05-21T03:59:19.717Z,20.90
2023-05-21T04:02:42.637Z,20.90
2023-05-21T04:06:05.571Z,20.90
2023-05-21T04:09:28.020Z,20.90
2023-05-21T04:12:52.441Z,20.90
2023-05-21T04:16:19.241Z,20.90
2023-05-21T04:19:42.451Z,20.90
2023-05-21T04:23:05.099Z,20.90
2023-05-21T04:26:28.080Z,20.90
2023-05-21T04:29:51.062Z,20.90
2023-05-21T04:33:17.893Z,20.90
2023-05-21T04:36:41.792Z,20.90
2023-05-21T04:40:04.377Z,20.90
2023-05-21T04:43:26.822Z,20.90
2023-05-21T04:46:52.746Z,20.90
2023-05-21T04:50:15.420Z,20.90
2023-05-21T04:53:38.824Z,20.90
2023-05-21T04:57:01.130Z,20.80
2023-05-21T05:00:26.198Z,20.90
2023-05-21T05:03:48.476Z,20.90
2023-05-21T05:07:10.954Z,20.80
2023-05-21T05:10:33.494Z,20.80
2023-05-21T05:13:56.060Z,20.80
2023-05-21T05:17:18.790Z,20.80
2023-05-21T05:20:41.349Z,20.90
2023-05-21T05:24:03.738Z,20.90
2023-05-21T05:27:27.531Z,20.90
2023-05-21T05:30:50.896Z,20.90
2023-05-21T05:34:18.746Z,20.90
2023-05-21T05:37:41.502Z,21.00
2023-05-21T05:41:03.867Z,21.00
2023-05-21T05:44:27.594Z,21.10
2023-05-21T05:47:50.046Z,21.20
2023-05-21T05:51:12.328Z,21.20
2023-05-21T05:54:34.644Z,21.20
2023-05-21T05:57:56.953Z,21.30
2023-05-21T06:01:19.833Z,21.30
2023-05-21T06:04:42.402Z,21.30
2023-05-21T06:08:05.198Z,21.40
2023-05-21T06:11:27.473Z,21.50
2023-05-21T06:14:50.936Z,21.50
2023-05-21T06:18:13.416Z,21.50
2023-05-21T06:21:35.852Z,21.60
2023-05-21T06:25:00.727Z,21.70
2023-05-21T06:28:23.070Z,21.70
2023-05-21T06:31:46.400Z,21.80
2023-05-21T06:35:09.155Z,21.70
2023-05-21T06:38:31.509Z,21.70
2023-05-21T06:41:55.687Z,21.70
2023-05-21T06:45:34.631Z,21.70
2023-05-21T06:49:03.871Z,21.40
2023-05-21T06:52:29.024Z,20.90
2023-05-21T06:55:53.935Z,20.60
2023-05-21T06:59:23.391Z,20.50
2023-05-21T07:02:45.888Z,20.50
2023-05-21T07:06:08.420Z,20.40
2023-05-21T07:09:31.587Z,20.30
2023-05-21T07:12:53.934Z,20.40
2023-05-21T07:15:56.816Z,20.30
2023-05-21T07:19:00.409Z,20.20
2023-05-21T07:22:02.581Z,20.20
2023-05-21T07:25:05.592Z,20.20
2023-05-21T07:28:08.082Z,20.20
2023-05-21T07:31:29.304Z,20.30
2023-05-21T07:34:54.215Z,20.50
2023-05-21T07:38:18.175Z,20.50
2023-05-21T07:41:40.506Z,20.50
2023-05-21T07:44:44.081Z,20.60
2023-05-21T07:47:46.947Z,20.60
2023-05-21T07:50:52.521Z,20.60
2023-05-21T07:53:55.566Z,20.50
2023-05-21T07:57:23.833Z,20.50
2023-05-21T08:00:52.752Z,20.50
2023-05-21T08:04:15.279Z,20.60
2023-05-21T08:07:38.445Z,20.60
2023-05-21T08:11:00.796Z,20.60
2023-05-21T08:14:23.691Z,20.60
2023-05-21T08:17:46.838Z,20.40
2023-05-21T08:21:09.523Z,20.30
2023-05-21T08:24:32.345Z,20.30
2023-05-21T08:27:54.769Z,20.20
2023-05-21T08:31:19.166Z,20.20
2023-05-21T08:34:41.563Z,20.30
2023-05-21T08:38:17.702Z,20.30
2023-05-21T08:41:54.050Z,20.40
2023-05-21T08:45:23.960Z,20.60
2023-05-21T08:48:47.650Z,20.50
2023-05-21T08:52:10.162Z,20.60
2023-05-21T08:55:33.396Z,20.60
2023-05-21T08:58:56.400Z,20.50
2023-05-21T09:02:24.919Z,20.50
2023-05-21T09:05:47.378Z,20.60
2023-05-21T09:09:39.991Z,20.70
2023-05-21T09:13:03.684Z,20.70
2023-05-21T09:16:26.581Z,20.80
2023-05-21T09:20:16.090Z,20.90
2023-05-21T09:23:56.977Z,21.00
2023-05-21T09:27:19.512Z,20.80
2023-05-21T09:30:46.635Z,20.70
2023-05-21T09:34:08.991Z,20.80
2023-05-21T09:37:32.292Z,20.90
2023-05-21T09:40:57.911Z,21.00
2023-05-21T09:44:21.468Z,21.10
2023-05-21T09:47:44.699Z,21.20
2023-05-21T09:51:13.885Z,21.30
2023-05-21T09:54:36.456Z,21.30
2023-05-21T09:58:01.739Z,21.30
2023-05-21T10:01:24.915Z,21.40
2023-05-21T10:04:50.150Z,21.40
2023-05-21T10:08:13.164Z,21.50
2023-05-21T10:11:36.990Z,21.50
2023-05-21T10:15:04.405Z,21.50
2023-05-21T10:18:28.207Z,21.50
2023-05-21T10:21:52.791Z,21.50
2023-05-21T10:25:15.793Z,21.60
2023-05-21T10:28:38.395Z,21.60
2023-05-21T10:32:02.031Z,21.60
2023-05-21T10:35:24.873Z,21.60
2023-05-21T10:38:47.661Z,21.70
2023-05-21T10:42:32.008Z,21.70
2023-05-21T10:46:25.193Z,21.70
2023-05-21T10:49:53.393Z,21.70
2023-05-21T10:53:18.634Z,21.70
2023-05-21T10:57:17.371Z,21.70
2023-05-21T11:00:40.106Z,21.70
2023-05-21T11:04:03.965Z,21.70
2023-05-21T11:07:58.664Z,21.70
2023-05-21T11:11:50.890Z,21.70
2023-05-21T11:15:16.453Z,21.70
2023-05-21T11:18:38.668Z,21.80
2023-05-21T11:22:01.038Z,21.70
2023-05-21T11:25:23.311Z,21.70
2023-05-21T11:28:46.144Z,21.80
2023-05-21T11:32:09.472Z,21.80
2023-05-21T11:35:36.149Z,21.80
2023-05-21T11:39:12.508Z,21.80
2023-05-21T11:42:39.277Z,21.80
2023-05-21T11:46:02.364Z,21.70
2023-05-21T11:49:24.871Z,21.80
2023-05-21T11:52:47.316Z,21.80
2023-05-21T11:56:09.874Z,21.80
2023-05-21T11:59:33.434Z,21.80
2023-05-21T12:02:56.594Z,21.80
2023-05-21T12:06:26.768Z,21.80
2023-05-21T12:09:50.935Z,21.80
2023-05-21T12:13:15.039Z,21.80
2023-05-21T12:16:39.021Z,21.80
2023-05-21T12:20:02.157Z,21.80
2023-05-21T12:23:24.822Z,21.80
2023-05-21T12:26:48.037Z,21.90
2023-05-21T12:30:11.117Z,21.90
2023-05-21T12:33:36.317Z,21.80
2023-05-21T12:36:58.715Z,21.80
2023-05-21T12:40:21.247Z,21.80
2023-05-21T12:43:43.798Z,21.80
2023-05-21T12:47:06.314Z,21.80
2023-05-21T12:50:28.833Z,21.80
2023-05-21T12:53:51.727Z,21.80
2023-05-21T12:57:16.040Z,21.80
2023-05-21T13:00:38.668Z,21.90
2023-05-21T13:04:01.480Z,21.80
2023-05-21T13:07:25.006Z,21.90
2023-05-21T13:10:47.322Z,21.90
2023-05-21T13:14:09.591Z,21.80
2023-05-21T13:17:32.198Z,21.80
2023-05-21T13:20:54.628Z,21.80
2023-05-21T13:24:17.002Z,21.80
2023-05-21T13:27:39.808Z,21.80
2023-05-21T13:31:02.058Z,21.80
2023-05-21T13:34:25.571Z,21.80
2023-05-21T13:37:47.983Z,21.80
2023-05-21T13:41:10.352Z,21.80
2023-05-21T13:44:36.093Z,21.80
2023-05-21T13:47:58.502Z,21.80
2023-05-21T13:51:37.407Z,21.80
2023-05-21T13:55:01.013Z,21.80
2023-05-21T13:58:23.465Z,21.80
2023-05-21T14:01:45.958Z,21.80
2023-05-21T14:05:08.658Z,21.80
2023-05-21T14:08:31.618Z,21.80
2023-05-21T14:11:55.177Z,21.80
2023-05-21T14:15:17.573Z,21.80
2023-05-21T14:18:39.856Z,21.80
2023-05-21T14:22:02.162Z,21.80
2023-05-21T14:25:24.479Z,21.80
2023-05-21T14:28:46.965Z,21.80
2023-05-21T14:32:09.353Z,21.80
2023-05-21T14:35:31.600Z,21.90
2023-05-21T14:38:53.928Z,21.80
2023-05-21T14:42:16.210Z,21.80
2023-05-21T14:45:38.699Z,21.70
2023-05-21T14:49:01.258Z,21.60
2023-05-21T14:52:23.612Z,21.60
2023-05-21T14:55:46.372Z,21.60
2023-05-21T14:59:11.305Z,21.50
2023-05-21T15:02:33.737Z,21.60
2023-05-21T15:05:56.092Z,21.60
2023-05-21T15:09:18.382Z,21.70
2023-05-21T15:12:41.353Z,21.70
2023-05-21T15:16:04.047Z,21.70
2023-05-21T15:19:26.531Z,21.70
2023-05-21T15:22:49.106Z,21.70
2023-05-21T15:26:11.476Z,21.70
2023-05-21T15:29:33.755Z,21.70
2023-05-21T15:32:56.156Z,21.70
2023-05-21T15:36:18.505Z,21.60
2023-05-21T15:39:44.279Z,21.60
2023-05-21T15:43:06.784Z,21.60
2023-05-21T15:46:29.271Z,21.60
2023-05-21T15:49:51.751Z,21.60
2023-05-21T15:53:14.102Z,21.60
2023-05-21T15:56:36.513Z,21.60
2023-05-21T15:59:58.900Z,21.60
2023-05-21T16:03:21.331Z,21.60
2023-05-21T16:06:43.743Z,21.50
2023-05-21T16:10:10.311Z,21.50
2023-05-21T16:13:32.614Z,21.50
2023-05-21T16:16:55.564Z,21.50
2023-05-21T16:20:18.822Z,21.50
2023-05-21T16:23:41.483Z,21.50
2023-05-21T16:27:03.910Z,21.50
2023-05-21T16:30:26.220Z,21.50
2023-05-21T16:33:48.539Z,21.50
2023-05-21T16:37:11.348Z,21.40
2023-05-21T16:40:33.842Z,21.40
2023-05-21T16:43:56.247Z,21.40
2023-05-21T16:47:18.635Z,21.40
2023-05-21T16:50:41.063Z,21.30
2023-05-21T16:54:04.862Z,21.30
2023-05-21T16:57:27.177Z,21.30
2023-05-21T17:00:49.486Z,21.30
2023-05-21T17:04:12.171Z,21.30
2023-05-21T17:07:34.549Z,21.40
2023-05-21T17:10:56.907Z,21.40
2023-05-21T17:14:30.306Z,21.30
2023-05-21T17:17:56.153Z,21.30
2023-05-21T17:21:19.496Z,21.30
2023-05-21T17:24:42.026Z,21.30
2023-05-21T17:28:04.546Z,21.30
2023-05-21T17:31:27.021Z,21.30
2023-05-21T17:34:49.403Z,21.30
2023-05-21T17:38:11.640Z,21.30
2023-05-21T17:41:34.044Z,21.30
2023-05-21T17:44:56.346Z,21.30
2023-05-21T17:48:18.827Z,21.20
2023-05-21T17:51:41.313Z,21.20
2023-05-21T17:55:03.909Z,21.20
2023-05-21T17:58:26.162Z,21.10
2023-05-21T18:01:48.532Z,21.20
2023-05-21T18:05:10.865Z,21.20
2023-05-21T18:08:33.192Z,21.20
2023-05-21T18:11:55.562Z,21.20
2023-05-21T18:15:17.915Z,21.20
2023-05-21T18:18:40.358Z,21.10
2023-05-21T18:22:02.956Z,21.20
2023-05-21T18:25:25.321Z,21.20
2023-05-21T18:28:48.925Z,21.10
2023-05-21T18:32:11.665Z,21.10
2023-05-21T18:35:34.982Z,21.10
2023-05-21T18:38:57.593Z,21.10
2023-05-21T18:42:19.928Z,21.10
2023-05-21T18:45:42.259Z,21.00
2023-05-21T18:49:05.639Z,21.00
2023-05-21T18:52:27.990Z,21.00
2023-05-21T18:55:50.413Z,20.90
2023-05-21T18:59:12.873Z,21.00
2023-05-21T19:02:36.458Z,21.00
2023-05-21T19:05:58.792Z,21.10
2023-05-21T19:09:21.188Z,21.40
2023-05-21T19:12:43.737Z,21.40
2023-05-21T19:16:10.936Z,21.40
2023-05-21T19:19:33.441Z,21.40
2023-05-21T19:22:56.111Z,21.40
2023-05-21T19:26:18.452Z,21.40
2023-05-21T19:29:40.867Z,21.40
2023-05-21T19:33:03.529Z,21.40
2023-05-21T19:36:25.918Z,21.40
2023-05-21T19:39:50.162Z,21.40
2023-05-21T19:43:12.984Z,21.40
2023-05-21T19:46:35.803Z,21.40
2023-05-21T19:49:58.061Z,21.40
2023-05-21T19:53:20.311Z,21.40
2023-05-21T19:56:42.598Z,21.40
2023-05-21T20:00:05.550Z,21.30
2023-05-21T20:03:35.977Z,21.30
2023-05-21T20:06:58.417Z,21.20
2023-05-21T20:10:20.982Z,21.30
2023-05-21T20:13:48.439Z,21.30
2023-05-21T20:17:11.665Z,21.40
2023-05-21T20:20:37.241Z,21.40
2023-05-21T20:23:59.858Z,21.50
2023-05-21T20:27:22.242Z,21.40
2023-05-21T20:30:58.050Z,21.50
2023-05-21T20:34:20.682Z,21.50
2023-05-21T20:37:43.073Z,21.50
2023-05-21T20:41:05.739Z,21.50
2023-05-21T20:44:29.216Z,21.50
2023-05-21T20:47:51.547Z,21.50
2023-05-21T20:51:14.305Z,21.50
2023-05-21T20:54:36.646Z,21.50
2023-05-21T20:57:58.935Z,21.50
2023-05-21T21:01:21.406Z,21.50
2023-05-21T21:04:43.702Z,21.50
2023-05-21T21:08:08.227Z,21.50
2023-05-21T21:11:31.204Z,21.50
2023-05-21T21:14:53.825Z,21.50
2023-05-21T21:18:16.831Z,21.50
2023-05-21T21:21:39.141Z,21.50
2023-05-21T21:25:02.246Z,21.50
2023-05-21T21:28:24.554Z,21.50
2023-05-21T21:31:55.615Z,21.50
2023-05-21T21:35:18.130Z,21.50
2023-05-21T21:38:40.702Z,21.50
2023-05-21T21:42:03.073Z,21.50
2023-05-21T21:45:25.358Z,21.50
2023-05-21T21:48:47.624Z,21.50
2023-05-21T21:52:10.876Z,21.50
2023-05-21T21:55:33.438Z,21.50
2023-05-21T21:58:55.784Z,21.50
2023-05-21T22:02:18.325Z,21.50
2023-05-21T22:05:40.781Z,21.50
2023-05-21T22:09:03.194Z,21.50
2023-05-21T22:12:25.524Z,21.40
2023-05-21T22:15:49.074Z,21.40
2023-05-21T22:19:12.894Z,21.40
2023-05-21T22:22:35.378Z,21.40
2023-05-21T22:25:57.647Z,21.50
2023-05-21T22:29:19.984Z,21.40
2023-05-21T22:32:42.363Z,21.40
2023-05-21T22:36:05.066Z,21.40
2023-05-21T22:39:27.370Z,21.40
2023-05-21T22:42:49.762Z,21.40
2023-05-21T22:46:12.197Z,21.40
2023-05-21T22:49:34.573Z,21.40
2023-05-21T22:52:56.934Z,21.40
2023-05-21T22:56:19.227Z,21.40
2023-05-21T22:59:41.521Z,21.40
2023-05-21T23:03:04.818Z,21.40
2023-05-21T23:06:27.192Z,21.40
2023-05-21T23:09:51.674Z,21.40
2023-05-21T23:13:14.010Z,21.40
2023-05-21T23:16:36.293Z,21.40
2023-05-21T23:19:59.509Z,21.40
2023-05-21T23:23:21.803Z,21.40
2023-05-21T23:26:44.084Z,21.40
2023-05-21T23:30:07.215Z,21.40
2023-05-21T23:33:29.544Z,21.40
2023-05-21T23:36:52.320Z,21.30
2023-05-21T23:40:14.741Z,21.30
2023-05-21T23:43:37.020Z,21.30
2023-05-21T23:46:59.298Z,21.30
2023-05-21T23:50:21.547Z,21.30
2023-05-21T23:53:43.889Z,21.40
2023-05-21T23:57:06.342Z,21.30
